Time;durP1;ratioP1;P1;durP2;ratioP2;P2;SDS_P1;SDS_P2;PMS_P1;PMS_P2;Temp;Humidity;BMP_temperature;BMP_pressure;BME280_temperature;BME280_humidity;BME280_pressure;Samples;Min_cycle;Max_cycle;Signal;HPM_P1;HPM_P2
2024/04/22 00:00:18;;;;;;;1.30;1.13;;;;;;;;;;5368757;26;20004;-79
2024/04/22 00:02:44;;;;;;;0.80;0.80;;;;;;;;;;5368912;26;20091;-79
2024/04/22 00:05:10;;;;;;;1.00;0.93;;;;;;;;;;5372571;26;19996;-77
2024/04/22 00:07:36;;;;;;;0.55;0.55;;;;;;;;;;5369828;26;20004;-77
2024/04/22 00:10:01;;;;;;;0.32;0.32;;;;;;;;;;5372494;26;20023;-79
2024/04/22 00:12:27;;;;;;;1.48;1.38;;;;;;;;;;5372184;26;20130;-79
2024/04/22 00:14:53;;;;;;;3.42;0.88;;;;;;;;;;5370299;26;20479;-80
2024/04/22 00:17:18;;;;;;;1.27;1.17;;;;;;;;;;5371529;26;20011;-80
2024/04/22 00:19:44;;;;;;;2.80;1.58;;;;;;;;;;5370084;26;20059;-80
2024/04/22 00:22:10;;;;;;;1.50;1.17;;;;;;;;;;5358113;26;20123;-79
2024/04/22 00:24:35;;;;;;;0.80;0.63;;;;;;;;;;5367706;26;20015;-78
2024/04/22 00:27:01;;;;;;;0.88;0.85;;;;;;;;;;5366489;26;19996;-79
2024/04/22 00:29:27;;;;;;;0.20;0.20;;;;;;;;;;5373678;26;20843;-81
2024/04/22 00:31:52;;;;;;;1.05;1.00;;;;;;;;;;5356865;26;20000;-78
2024/04/22 00:34:18;;;;;;;1.40;0.90;;;;;;;;;;5369893;26;20424;-78
2024/04/22 00:36:44;;;;;;;0.28;0.25;;;;;;;;;;5363148;26;20038;-78
2024/04/22 00:39:09;;;;;;;7.43;3.28;;;;;;;;;;5365508;26;20004;-78
2024/04/22 00:41:35;;;;;;;1.45;1.35;;;;;;;;;;5369748;26;20119;-79
2024/04/22 00:44:01;;;;;;;0.70;0.70;;;;;;;;;;5339516;26;19996;-79
2024/04/22 00:46:27;;;;;;;2.17;2.08;;;;;;;;;;5396000;26;20127;-80
2024/04/22 00:48:53;;;;;;;1.05;0.95;;;;;;;;;;5405321;26;19996;-81
2024/04/22 00:51:19;;;;;;;0.63;0.52;;;;;;;;;;5394850;26;19995;-81
2024/04/22 00:53:45;;;;;;;3.95;2.63;;;;;;;;;;5410702;26;20044;-82
2024/04/22 00:56:11;;;;;;;2.30;1.67;;;;;;;;;;5415260;26;20008;-79
2024/04/22 00:58:37;;;;;;;0.20;0.20;;;;;;;;;;5416708;26;20711;-79
2024/04/22 01:01:05;;;;;;;5.28;1.20;;;;;;;;;;5381774;26;20007;-79
2024/04/22 01:03:31;;;;;;;1.10;1.00;;;;;;;;;;5419378;26;20802;-80
2024/04/22 01:05:57;;;;;;;0.98;0.85;;;;;;;;;;5411948;26;19996;-80
2024/04/22 01:08:25;;;;;;;0.20;0.20;;;;;;;;;;5405808;26;20007;-80
2024/04/22 01:10:50;;;;;;;1.23;1.13;;;;;;;;;;5401723;26;20100;-81
2024/04/22 01:13:16;;;;;;;0.73;0.65;;;;;;;;;;5413220;26;20007;-81
2024/04/22 01:15:42;;;;;;;1.48;1.25;;;;;;;;;;5412287;26;20370;-79
2024/04/22 01:18:07;;;;;;;0.30;0.28;;;;;;;;;;5405727;26;19996;-80
2024/04/22 01:20:33;;;;;;;0.28;0.28;;;;;;;;;;5406837;26;20561;-79
2024/04/22 01:22:59;;;;;;;0.73;0.70;;;;;;;;;;5406758;26;20000;-80
2024/04/22 01:25:26;;;;;;;1.20;1.10;;;;;;;;;;5400191;26;20015;-78
2024/04/22 01:27:52;;;;;;;2.25;2.05;;;;;;;;;;5373234;26;20072;-79
2024/04/22 01:30:18;;;;;;;7.30;6.88;;;;;;;;;;5402643;26;20008;-79
2024/04/22 01:32:43;;;;;;;0.20;0.20;;;;;;;;;;5400254;26;20015;-79
2024/04/22 01:35:09;;;;;;;1.38;1.27;;;;;;;;;;5401719;26;20443;-79
2024/04/22 01:37:35;;;;;;;0.60;0.50;;;;;;;;;;5404285;26;20000;-81
2024/04/22 01:40:01;;;;;;;1.45;1.23;;;;;;;;;;5400358;26;19991;-82
2024/04/22 01:42:26;;;;;;;2.47;2.28;;;;;;;;;;5404141;26;19996;-78
2024/04/22 01:44:52;;;;;;;1.73;1.15;;;;;;;;;;5402322;26;21030;-80
2024/04/22 01:47:18;;;;;;;0.43;0.43;;;;;;;;;;5404676;26;20335;-81
2024/04/22 01:49:43;;;;;;;1.13;1.10;;;;;;;;;;5403065;26;20003;-82
2024/04/22 01:52:09;;;;;;;2.10;1.40;;;;;;;;;;5402408;26;20850;-82
2024/04/22 01:54:35;;;;;;;0.38;0.38;;;;;;;;;;5404162;26;20009;-82
2024/04/22 01:57:00;;;;;;;1.55;1.20;;;;;;;;;;5389957;26;19991;-79
2024/04/22 01:59:26;;;;;;;1.60;1.08;;;;;;;;;;5398901;26;20024;-81
2024/04/22 02:01:52;;;;;;;2.53;1.05;;;;;;;;;;5403321;26;20089;-82
2024/04/22 02:04:18;;;;;;;1.08;0.60;;;;;;;;;;5406927;26;20483;-81
2024/04/22 02:06:43;;;;;;;0.20;0.20;;;;;;;;;;5407905;26;19999;-83
2024/04/22 02:09:09;;;;;;;1.95;1.23;;;;;;;;;;5406546;26;20381;-80
2024/04/22 02:11:35;;;;;;;0.47;0.47;;;;;;;;;;5385337;26;20330;-80
2024/04/22 02:14:01;;;;;;;1.33;1.02;;;;;;;;;;5405920;26;19999;-82
2024/04/22 02:16:26;;;;;;;1.05;0.85;;;;;;;;;;5401819;26;20018;-81
2024/04/22 02:18:55;;;;;;;2.58;1.05;;;;;;;;;;5402275;26;20007;-80
2024/04/22 02:21:22;;;;;;;2.53;2.33;;;;;;;;;;5403978;26;19996;-81
2024/04/22 02:23:48;;;;;;;49.42;20.77;;;;;;;;;;5378201;26;20447;-81
2024/04/22 02:26:15;;;;;;;1.90;1.77;;;;;;;;;;5404681;26;20004;-80
2024/04/22 02:28:40;;;;;;;0.65;0.65;;;;;;;;;;5400100;26;20072;-81
2024/04/22 02:31:06;;;;;;;1.80;1.25;;;;;;;;;;5403795;26;19991;-82
2024/04/22 02:33:32;;;;;;;0.82;0.82;;;;;;;;;;5376993;26;20000;-82
2024/04/22 02:35:57;;;;;;;1.17;1.08;;;;;;;;;;5404000;26;19998;-81
2024/04/22 02:38:23;;;;;;;0.30;0.30;;;;;;;;;;5400120;26;19992;-80
2024/04/22 02:40:49;;;;;;;0.30;0.30;;;;;;;;;;5407640;26;20553;-79
2024/04/22 02:43:14;;;;;;;0.95;0.95;;;;;;;;;;5396358;26;20011;-78
2024/04/22 02:45:41;;;;;;;0.40;0.40;;;;;;;;;;5396582;26;20412;-80
2024/04/22 02:48:07;;;;;;;0.30;0.30;;;;;;;;;;5404109;26;20011;-79
2024/04/22 02:50:33;;;;;;;1.00;0.95;;;;;;;;;;5410870;26;20077;-79
2024/04/22 02:52:58;;;;;;;1.38;1.38;;;;;;;;;;5401064;26;20012;-81
2024/04/22 02:55:28;;;;;;;0.50;0.50;;;;;;;;;;5397282;26;20000;-80
2024/04/22 02:57:54;;;;;;;2.42;2.05;;;;;;;;;;5391355;26;19996;-79
2024/04/22 03:00:20;;;;;;;1.80;1.65;;;;;;;;;;5405817;26;19995;-83
2024/04/22 03:02:46;;;;;;;0.30;0.30;;;;;;;;;;5397805;26;20004;-84
2024/04/22 03:05:11;;;;;;;0.28;0.28;;;;;;;;;;5402708;26;20003;-82
2024/04/22 03:07:37;;;;;;;0.30;0.30;;;;;;;;;;5409384;26;19991;-82
2024/04/22 03:10:03;;;;;;;0.30;0.30;;;;;;;;;;5399924;26;20006;-80
2024/04/22 03:12:31;;;;;;;2.00;1.90;;;;;;;;;;5409608;26;20010;-82
2024/04/22 03:14:57;;;;;;;0.20;0.20;;;;;;;;;;5399515;26;20044;-80
2024/04/22 03:17:23;;;;;;;2.38;1.55;;;;;;;;;;5405458;26;20003;-80
2024/04/22 03:19:49;;;;;;;2.95;2.00;;;;;;;;;;5407157;26;19996;-80
2024/04/22 03:22:15;;;;;;;2.42;2.33;;;;;;;;;;5401885;26;20092;-81
2024/04/22 03:24:41;;;;;;;0.20;0.20;;;;;;;;;;5401860;26;19999;-83
2024/04/22 03:27:06;;;;;;;0.40;0.40;;;;;;;;;;5371188;26;20415;-82
2024/04/22 03:29:32;;;;;;;1.40;0.68;;;;;;;;;;5400720;26;19992;-79
2024/04/22 03:31:58;;;;;;;3.88;3.28;;;;;;;;;;5399590;26;20533;-81
2024/04/22 03:34:24;;;;;;;0.20;0.20;;;;;;;;;;5398508;26;19995;-78
2024/04/22 03:36:50;;;;;;;4.05;3.25;;;;;;;;;;5395432;26;20007;-77
2024/04/22 03:39:16;;;;;;;0.45;0.43;;;;;;;;;;5398582;26;19992;-80
2024/04/22 03:41:42;;;;;;;0.20;0.20;;;;;;;;;;5398584;26;20816;-79
2024/04/22 03:44:08;;;;;;;0.20;0.20;;;;;;;;;;5399595;26;20106;-79
2024/04/22 03:52:03;;;;;;;0.40;0.40;;;;;;;;;;5365712;26;20357;-78
2024/04/22 03:54:28;;;;;;;0.50;0.50;;;;;;;;;;5365083;26;20313;-76
2024/04/22 03:56:54;;;;;;;0.55;0.55;;;;;;;;;;5367690;26;20023;-80
2024/04/22 03:59:20;;;;;;;1.77;1.67;;;;;;;;;;5366570;26;20011;-78
2024/04/22 04:01:46;;;;;;;0.68;0.68;;;;;;;;;;5366360;26;20073;-78
2024/04/22 04:04:11;;;;;;;0.75;0.75;;;;;;;;;;5366510;26;20411;-79
2024/04/22 04:06:37;;;;;;;1.50;0.55;;;;;;;;;;5360971;26;20082;-79
2024/04/22 04:09:03;;;;;;;1.52;1.42;;;;;;;;;;5361894;26;20012;-77
2024/04/22 04:11:36;;;;;;;1.05;1.05;;;;;;;;;;5371252;26;20046;-81
2024/04/22 04:14:01;;;;;;;0.20;0.20;;;;;;;;;;5366156;26;20004;-80
2024/04/22 04:16:27;;;;;;;3.17;3.05;;;;;;;;;;5363628;26;20069;-80
2024/04/22 04:18:53;;;;;;;3.47;2.50;;;;;;;;;;5365762;26;20027;-78
2024/04/22 04:21:18;;;;;;;1.48;1.45;;;;;;;;;;5352138;26;20000;-76
2024/04/22 04:23:44;;;;;;;0.20;0.20;;;;;;;;;;5363686;26;19992;-77
2024/04/22 04:26:10;;;;;;;0.30;0.30;;;;;;;;;;5362723;26;20019;-77
2024/04/22 04:28:35;;;;;;;0.60;0.60;;;;;;;;;;5359194;26;20435;-78
2024/04/22 04:31:01;;;;;;;0.40;0.40;;;;;;;;;;5363736;26;20015;-79
2024/04/22 04:33:27;;;;;;;0.30;0.30;;;;;;;;;;5370413;26;20347;-77
2024/04/22 04:36:07;;;;;;;0.20;0.20;;;;;;;;;;5358123;26;20048;-78
2024/04/22 04:38:33;;;;;;;1.65;1.50;;;;;;;;;;5353875;26;20001;-77
2024/04/22 04:41:00;;;;;;;1.17;1.02;;;;;;;;;;5368979;26;20345;-79
2024/04/22 04:43:26;;;;;;;0.25;0.25;;;;;;;;;;5365027;26;19996;-81
2024/04/22 04:45:52;;;;;;;0.40;0.40;;;;;;;;;;5329814;26;20386;-77
2024/04/22 04:48:18;;;;;;;0.50;0.50;;;;;;;;;;5364089;26;20009;-80
2024/04/22 04:50:44;;;;;;;0.30;0.30;;;;;;;;;;5367475;26;20019;-82
2024/04/22 04:53:13;;;;;;;1.25;1.15;;;;;;;;;;5364540;26;20460;-82
2024/04/22 04:55:39;;;;;;;0.30;0.30;;;;;;;;;;5358647;26;20009;-80
2024/04/22 04:58:06;;;;;;;0.20;0.20;;;;;;;;;;5383572;26;20022;-77
2024/04/22 05:00:33;;;;;;;0.20;0.20;;;;;;;;;;5363100;26;20418;-79
2024/04/22 05:02:58;;;;;;;1.63;1.48;;;;;;;;;;5393423;26;20015;-78
2024/04/22 05:05:24;;;;;;;0.43;0.30;;;;;;;;;;5395926;26;20015;-78
2024/04/22 05:07:50;;;;;;;0.40;0.40;;;;;;;;;;5384487;26;20434;-78
2024/04/22 05:10:17;;;;;;;1.00;1.00;;;;;;;;;;5397409;26;20412;-78
2024/04/22 05:12:42;;;;;;;0.30;0.30;;;;;;;;;;5384919;26;20017;-78
2024/04/22 05:15:09;;;;;;;1.33;1.23;;;;;;;;;;5369195;26;20005;-76
2024/04/22 05:17:35;;;;;;;0.73;0.73;;;;;;;;;;5366951;26;20003;-79
2024/04/22 05:20:00;;;;;;;0.25;0.25;;;;;;;;;;5368927;26;20045;-77
2024/04/22 05:22:26;;;;;;;0.47;0.47;;;;;;;;;;5396098;26;20019;-82
2024/04/22 05:24:52;;;;;;;0.30;0.30;;;;;;;;;;5369811;26;20443;-81
2024/04/22 05:27:18;;;;;;;0.35;0.35;;;;;;;;;;5403661;26;20336;-83
2024/04/22 05:29:43;;;;;;;0.20;0.20;;;;;;;;;;5393657;26;20021;-83
2024/04/22 05:32:09;;;;;;;0.52;0.52;;;;;;;;;;5393431;26;20006;-81
2024/04/22 05:37:19;;;;;;;4.40;2.25;;;;;;;;;;5400358;26;20450;-81
2024/04/22 05:39:45;;;;;;;1.10;1.10;;;;;;;;;;5372518;26;20023;-82
2024/04/22 05:42:11;;;;;;;0.75;0.75;;;;;;;;;;5394652;26;19992;-82
2024/04/22 05:44:36;;;;;;;0.50;0.50;;;;;;;;;;5400922;26;20007;-82
2024/04/22 05:47:02;;;;;;;0.30;0.30;;;;;;;;;;5403571;26;19999;-80
2024/04/22 05:49:28;;;;;;;2.38;2.28;;;;;;;;;;5392983;26;20000;-83
2024/04/22 05:51:53;;;;;;;0.20;0.20;;;;;;;;;;5366833;26;19999;-82
2024/04/22 05:54:20;;;;;;;0.30;0.30;;;;;;;;;;5388929;26;19992;-82
2024/04/22 05:56:46;;;;;;;2.92;2.63;;;;;;;;;;5406524;26;20003;-81
2024/04/22 05:59:15;;;;;;;0.60;0.60;;;;;;;;;;5397297;26;20117;-81
2024/04/22 06:01:41;;;;;;;0.20;0.20;;;;;;;;;;5369828;26;21574;-82
2024/04/22 06:04:06;;;;;;;0.30;0.30;;;;;;;;;;5361079;26;20387;-82
2024/04/22 06:06:33;;;;;;;0.20;0.20;;;;;;;;;;5365972;26;20771;-81
2024/04/22 06:09:00;;;;;;;1.30;1.20;;;;;;;;;;5348906;26;19996;-82
2024/04/22 06:11:25;;;;;;;0.30;0.30;;;;;;;;;;5366284;26;20474;-81
2024/04/22 06:13:51;;;;;;;1.15;1.05;;;;;;;;;;5361392;26;20017;-80
2024/04/22 06:16:17;;;;;;;0.30;0.30;;;;;;;;;;5367420;26;20011;-81
2024/04/22 06:18:43;;;;;;;0.60;0.60;;;;;;;;;;5358311;26;19992;-81
2024/04/22 06:21:08;;;;;;;0.20;0.20;;;;;;;;;;5368345;26;20008;-80
2024/04/22 06:23:34;;;;;;;0.20;0.20;;;;;;;;;;5363614;26;20417;-81
2024/04/22 06:26:04;;;;;;;0.40;0.35;;;;;;;;;;5364981;26;20000;-82
2024/04/22 06:28:29;;;;;;;0.30;0.30;;;;;;;;;;5369938;26;20024;-82
2024/04/22 06:30:55;;;;;;;0.20;0.20;;;;;;;;;;5372387;26;20055;-82
2024/04/22 06:33:21;;;;;;;0.32;0.32;;;;;;;;;;5360075;26;20569;-81
2024/04/22 06:35:46;;;;;;;0.20;0.20;;;;;;;;;;5362659;26;20004;-82
2024/04/22 06:38:12;;;;;;;0.75;0.75;;;;;;;;;;5368345;26;20046;-81
2024/04/22 06:40:38;;;;;;;0.30;0.28;;;;;;;;;;5358111;26;19996;-82
2024/04/22 06:43:05;;;;;;;2.50;1.73;;;;;;;;;;5364364;26;20023;-80
2024/04/22 06:45:31;;;;;;;0.30;0.30;;;;;;;;;;5368718;26;20055;-82
2024/04/22 06:47:56;;;;;;;18.45;1.58;;;;;;;;;;5363788;26;20471;-81
2024/04/22 06:50:22;;;;;;;0.30;0.30;;;;;;;;;;5365062;26;19996;-81
2024/04/22 06:52:48;;;;;;;0.50;0.50;;;;;;;;;;5369031;26;20451;-81
2024/04/22 06:55:13;;;;;;;0.73;0.63;;;;;;;;;;5361261;26;20004;-81
2024/04/22 06:57:39;;;;;;;0.47;0.40;;;;;;;;;;5361148;26;20009;-80
2024/04/22 07:00:05;;;;;;;0.20;0.20;;;;;;;;;;5361116;26;19996;-81
2024/04/22 07:02:31;;;;;;;0.45;0.40;;;;;;;;;;5362675;26;20090;-81
2024/04/22 07:04:57;;;;;;;0.20;0.20;;;;;;;;;;5367616;26;20007;-82
2024/04/22 07:07:23;;;;;;;0.30;0.30;;;;;;;;;;5368445;26;20001;-82
2024/04/22 07:09:48;;;;;;;0.50;0.50;;;;;;;;;;5366899;26;20739;-82
2024/04/22 07:12:14;;;;;;;3.15;2.20;;;;;;;;;;5369748;26;20020;-82
2024/04/22 07:14:40;;;;;;;2.17;0.63;;;;;;;;;;5372044;26;20007;-84
2024/04/22 07:17:05;;;;;;;1.23;1.23;;;;;;;;;;5369679;26;19996;-82
2024/04/22 07:19:31;;;;;;;1.42;1.08;;;;;;;;;;5371157;26;20020;-81
2024/04/22 07:21:58;;;;;;;1.17;0.93;;;;;;;;;;5364255;26;20005;-82
2024/04/22 07:24:24;;;;;;;1.63;1.52;;;;;;;;;;5357824;26;20004;-82
2024/04/22 07:26:50;;;;;;;0.43;0.43;;;;;;;;;;5371147;26;20000;-83
2024/04/22 07:29:15;;;;;;;1.48;1.38;;;;;;;;;;5370705;26;20004;-81
2024/04/22 07:31:44;;;;;;;0.57;0.52;;;;;;;;;;5372696;26;20058;-82
2024/04/22 07:34:10;;;;;;;1.90;1.75;;;;;;;;;;5372175;26;20458;-81
2024/04/22 07:36:36;;;;;;;0.20;0.20;;;;;;;;;;5367299;26;19996;-82
2024/04/22 07:39:03;;;;;;;0.38;0.38;;;;;;;;;;5369606;26;20016;-80
2024/04/22 07:41:29;;;;;;;0.52;0.52;;;;;;;;;;5368935;26;20004;-81
2024/04/22 07:43:54;;;;;;;0.50;0.50;;;;;;;;;;5371075;26;20000;-79
2024/04/22 07:46:23;;;;;;;1.52;1.20;;;;;;;;;;5372706;26;20043;-81
2024/04/22 07:48:49;;;;;;;0.30;0.30;;;;;;;;;;5372977;26;20014;-81
2024/04/22 07:51:15;;;;;;;0.38;0.30;;;;;;;;;;5365320;26;20012;-83
2024/04/22 07:53:41;;;;;;;0.20;0.20;;;;;;;;;;5369946;26;19996;-82
2024/04/22 07:56:14;;;;;;;2.80;2.40;;;;;;;;;;5363198;26;20000;-82
2024/04/22 07:58:40;;;;;;;2.30;2.10;;;;;;;;;;5366183;26;20100;-79
2024/04/22 08:01:06;;;;;;;0.75;0.40;;;;;;;;;;5370388;26;20058;-81
2024/04/22 08:03:31;;;;;;;2.38;2.17;;;;;;;;;;5361572;26;19996;-82
2024/04/22 08:06:00;;;;;;;0.52;0.50;;;;;;;;;;5368552;26;20085;-83
2024/04/22 08:08:28;;;;;;;1.98;1.83;;;;;;;;;;5367343;26;20008;-83
2024/04/22 08:10:53;;;;;;;0.20;0.20;;;;;;;;;;5366073;26;20000;-81
2024/04/22 08:13:19;;;;;;;0.65;0.65;;;;;;;;;;5366573;26;20052;-81
2024/04/22 08:15:45;;;;;;;0.20;0.20;;;;;;;;;;5369778;26;20427;-80
2024/04/22 08:18:13;;;;;;;0.30;0.30;;;;;;;;;;5368465;26;20005;-82
2024/04/22 08:20:39;;;;;;;0.20;0.20;;;;;;;;;;5372543;26;20734;-81
2024/04/22 08:23:05;;;;;;;0.30;0.30;;;;;;;;;;5367546;26;20169;-81
2024/04/22 08:25:30;;;;;;;2.55;2.30;;;;;;;;;;5366679;26;20460;-80
2024/04/22 08:27:56;;;;;;;1.30;1.20;;;;;;;;;;5340582;26;19996;-81
2024/04/22 08:30:24;;;;;;;1.38;1.33;;;;;;;;;;5377462;26;20020;-81
2024/04/22 08:32:50;;;;;;;1.20;1.10;;;;;;;;;;5408373;26;20015;-81
2024/04/22 08:35:16;;;;;;;0.40;0.40;;;;;;;;;;5407696;26;19991;-79
2024/04/22 08:37:42;;;;;;;1.95;1.85;;;;;;;;;;5401940;26;20000;-81
2024/04/22 08:40:08;;;;;;;1.17;1.02;;;;;;;;;;5403486;26;20015;-81
2024/04/22 08:42:36;;;;;;;1.33;1.23;;;;;;;;;;5407526;26;20000;-81
2024/04/22 08:45:02;;;;;;;0.30;0.30;;;;;;;;;;5403532;26;20122;-81
2024/04/22 08:47:27;;;;;;;2.05;1.98;;;;;;;;;;5407913;26;20007;-81
2024/04/22 08:49:53;;;;;;;1.85;1.50;;;;;;;;;;5398945;26;19992;-80
2024/04/22 08:52:19;;;;;;;0.30;0.30;;;;;;;;;;5407337;26;20083;-81
2024/04/22 08:54:45;;;;;;;2.42;2.22;;;;;;;;;;5404453;26;20359;-81
2024/04/22 08:57:11;;;;;;;1.75;1.55;;;;;;;;;;5380812;26;20034;-82
2024/04/22 08:59:36;;;;;;;1.60;1.20;;;;;;;;;;5426934;26;20024;-81
2024/04/22 09:02:03;;;;;;;0.30;0.30;;;;;;;;;;5360748;26;20007;-80
2024/04/22 09:04:29;;;;;;;1.58;1.48;;;;;;;;;;5397578;26;20057;-81
2024/04/22 09:06:55;;;;;;;1.63;0.80;;;;;;;;;;5407432;26;19995;-80
2024/04/22 09:09:24;;;;;;;0.20;0.20;;;;;;;;;;5406732;26;20010;-81
2024/04/22 09:11:50;;;;;;;0.20;0.20;;;;;;;;;;5402234;26;20011;-81
2024/04/22 09:14:16;;;;;;;0.85;0.43;;;;;;;;;;5373533;26;20013;-81
2024/04/22 09:16:42;;;;;;;0.75;0.75;;;;;;;;;;5406960;26;20007;-80
2024/04/22 09:19:08;;;;;;;0.68;0.68;;;;;;;;;;5400107;26;20007;-81
2024/04/22 09:21:37;;;;;;;1.50;1.00;;;;;;;;;;5406278;26;20661;-80
2024/04/22 09:24:04;;;;;;;1.90;1.75;;;;;;;;;;5406366;26;20039;-81
2024/04/22 09:26:30;;;;;;;0.65;0.63;;;;;;;;;;5404041;26;20031;-80
2024/04/22 09:29:00;;;;;;;2.72;2.05;;;;;;;;;;5404925;26;20006;-81
2024/04/22 09:31:26;;;;;;;0.20;0.20;;;;;;;;;;5403074;26;20000;-81
2024/04/22 09:33:56;;;;;;;1.25;1.15;;;;;;;;;;5373941;26;20463;-81
2024/04/22 09:36:22;;;;;;;0.93;0.82;;;;;;;;;;5405147;26;20105;-80
2024/04/22 09:38:50;;;;;;;1.35;1.25;;;;;;;;;;5397298;26;20080;-80
2024/04/22 09:41:18;;;;;;;0.20;0.20;;;;;;;;;;5402781;26;20015;-81
2024/04/22 09:43:44;;;;;;;0.73;0.70;;;;;;;;;;5390923;26;20000;-81
2024/04/22 09:46:11;;;;;;;0.30;0.30;;;;;;;;;;5401087;26;20000;-80
2024/04/22 09:48:37;;;;;;;0.20;0.20;;;;;;;;;;5406087;26;19996;-81
2024/04/22 09:51:02;;;;;;;2.08;1.48;;;;;;;;;;5360188;26;20065;-81
2024/04/22 09:53:28;;;;;;;0.30;0.30;;;;;;;;;;5404664;26;19991;-80
2024/04/22 09:56:07;;;;;;;1.02;0.93;;;;;;;;;;5402182;26;20014;-80
2024/04/22 09:58:33;;;;;;;3.13;1.55;;;;;;;;;;5404251;26;20019;-80
2024/04/22 10:00:59;;;;;;;0.77;0.75;;;;;;;;;;5396976;26;20084;-81
2024/04/22 10:03:29;;;;;;;0.20;0.20;;;;;;;;;;5405815;26;19992;-79
2024/04/22 10:05:58;;;;;;;1.10;1.00;;;;;;;;;;5374811;26;20044;-80
2024/04/22 10:08:24;;;;;;;0.20;0.20;;;;;;;;;;5375379;26;20031;-81
2024/04/22 10:10:50;;;;;;;0.40;0.40;;;;;;;;;;5404445;26;20027;-79
2024/04/22 10:13:15;;;;;;;0.30;0.30;;;;;;;;;;5407304;26;19992;-79
2024/04/22 10:15:41;;;;;;;1.10;1.10;;;;;;;;;;5396693;26;20699;-81
2024/04/22 10:18:12;;;;;;;4.65;4.03;;;;;;;;;;5393314;26;20109;-79
2024/04/22 10:20:40;;;;;;;2.38;1.70;;;;;;;;;;5374875;26;20008;-79
2024/04/22 10:23:06;;;;;;;1.65;1.20;;;;;;;;;;5409057;26;20007;-80
2024/04/22 10:25:32;;;;;;;2.85;1.77;;;;;;;;;;5370929;26;20000;-81
2024/04/22 10:27:58;;;;;;;1.90;1.27;;;;;;;;;;5409085;26;20010;-81
2024/04/22 10:30:36;;;;;;;0.20;0.20;;;;;;;;;;5387868;26;20406;-79
2024/04/22 10:33:03;;;;;;;2.22;2.03;;;;;;;;;;5408252;26;20654;-81
2024/04/22 10:35:29;;;;;;;2.05;1.95;;;;;;;;;;5400126;26;20028;-81
2024/04/22 10:37:55;;;;;;;0.30;0.30;;;;;;;;;;5409008;26;20010;-80
2024/04/22 10:40:20;;;;;;;0.30;0.30;;;;;;;;;;5404132;26;20008;-80
2024/04/22 10:42:46;;;;;;;1.77;1.63;;;;;;;;;;5407875;26;20010;-81
2024/04/22 10:45:13;;;;;;;3.55;2.00;;;;;;;;;;5401088;26;20019;-80
2024/04/22 10:47:39;;;;;;;0.95;0.85;;;;;;;;;;5408033;26;20101;-80
2024/04/22 10:50:13;;;;;;;0.20;0.20;;;;;;;;;;5399738;26;20053;-81
2024/04/22 10:52:39;;;;;;;2.25;2.15;;;;;;;;;;5400570;26;20003;-81
2024/04/22 10:55:05;;;;;;;2.10;1.38;;;;;;;;;;5375859;26;20678;-79
2024/04/22 10:57:30;;;;;;;1.75;1.65;;;;;;;;;;5404858;26;20360;-81
2024/04/22 10:59:57;;;;;;;0.30;0.30;;;;;;;;;;5400198;26;20046;-80
2024/04/22 11:02:22;;;;;;;1.90;1.70;;;;;;;;;;5386239;26;20427;-81
2024/04/22 11:04:49;;;;;;;2.03;1.35;;;;;;;;;;5399877;26;20015;-82
2024/04/22 11:07:16;;;;;;;2.10;1.90;;;;;;;;;;5402880;26;20439;-80
2024/04/22 11:09:42;;;;;;;0.57;0.50;;;;;;;;;;5423121;26;20730;-82
2024/04/22 11:12:09;;;;;;;0.20;0.20;;;;;;;;;;5370138;26;20015;-81
2024/04/22 11:14:35;;;;;;;1.90;1.75;;;;;;;;;;5383681;26;20523;-81
2024/04/22 11:17:01;;;;;;;1.55;1.40;;;;;;;;;;5395540;26;19999;-81
2024/04/22 11:19:27;;;;;;;0.20;0.20;;;;;;;;;;5374745;26;20000;-80
2024/04/22 11:21:52;;;;;;;1.77;1.67;;;;;;;;;;5339087;26;20154;-79
2024/04/22 11:24:19;;;;;;;2.47;1.60;;;;;;;;;;5375561;26;19995;-79
2024/04/22 11:26:45;;;;;;;0.38;0.38;;;;;;;;;;5375060;26;20466;-80
2024/04/22 11:29:11;;;;;;;0.35;0.35;;;;;;;;;;5406114;26;20036;-81
2024/04/22 11:31:38;;;;;;;2.17;1.90;;;;;;;;;;5391711;26;20004;-81
2024/04/22 11:34:07;;;;;;;2.75;2.25;;;;;;;;;;5405560;26;20023;-80
2024/04/22 11:36:34;;;;;;;6.20;2.83;;;;;;;;;;5407372;26;20008;-81
2024/04/22 11:39:12;;;;;;;3.35;2.28;;;;;;;;;;5376042;26;20642;-82
2024/04/22 11:41:39;;;;;;;3.50;2.10;;;;;;;;;;5407848;26;20011;-80
2024/04/22 11:44:05;;;;;;;2.70;2.50;;;;;;;;;;5398112;26;20006;-80
2024/04/22 11:46:31;;;;;;;2.75;1.85;;;;;;;;;;5402998;26;20007;-80
2024/04/22 11:48:57;;;;;;;1.48;1.15;;;;;;;;;;5373756;26;20019;-81
2024/04/22 11:51:22;;;;;;;3.08;2.30;;;;;;;;;;5377110;26;19992;-81
2024/04/22 11:53:49;;;;;;;0.75;0.75;;;;;;;;;;5374258;26;19996;-79
2024/04/22 11:56:15;;;;;;;1.25;1.15;;;;;;;;;;5395720;26;20069;-81
2024/04/22 11:58:41;;;;;;;1.27;1.27;;;;;;;;;;5403626;26;20007;-81
2024/04/22 12:01:06;;;;;;;0.20;0.20;;;;;;;;;;5403596;26;20015;-80
2024/04/22 12:03:32;;;;;;;1.08;0.98;;;;;;;;;;5403018;26;20281;-81
2024/04/22 12:05:58;;;;;;;2.58;2.38;;;;;;;;;;5368476;26;20423;-81
2024/04/22 12:08:23;;;;;;;3.03;2.67;;;;;;;;;;5402963;26;20003;-83
2024/04/22 12:10:50;;;;;;;0.20;0.20;;;;;;;;;;5406002;26;20006;-82
2024/04/22 12:13:15;;;;;;;24.35;22.58;;;;;;;;;;5405442;26;20015;-81
2024/04/22 12:15:41;;;;;;;1.60;1.50;;;;;;;;;;5376119;26;20820;-82
2024/04/22 12:18:07;;;;;;;0.40;0.30;;;;;;;;;;5405944;26;20008;-81
2024/04/22 12:20:32;;;;;;;0.55;0.55;;;;;;;;;;5408271;26;20707;-83
2024/04/22 12:22:58;;;;;;;2.63;2.42;;;;;;;;;;5375833;26;20019;-82
2024/04/22 12:25:24;;;;;;;1.40;1.27;;;;;;;;;;5402822;26;20650;-81
2024/04/22 12:27:50;;;;;;;2.15;1.92;;;;;;;;;;5371190;26;19996;-81
2024/04/22 12:30:15;;;;;;;1.90;1.70;;;;;;;;;;5401157;26;19996;-81
2024/04/22 12:32:41;;;;;;;0.60;0.60;;;;;;;;;;5398684;26;20865;-81
2024/04/22 12:35:07;;;;;;;1.25;1.15;;;;;;;;;;5404495;26;19999;-80
2024/04/22 12:37:32;;;;;;;0.30;0.30;;;;;;;;;;5394672;26;20435;-81
2024/04/22 12:39:58;;;;;;;0.30;0.30;;;;;;;;;;5398147;26;20014;-81
2024/04/22 12:42:24;;;;;;;2.13;1.92;;;;;;;;;;5401322;26;20462;-80
2024/04/22 12:44:50;;;;;;;2.15;1.95;;;;;;;;;;5400474;26;20018;-82
2024/04/22 12:52:45;;;;;;;1.60;1.17;;;;;;;;;;5398768;26;20042;-82
2024/04/22 12:55:11;;;;;;;1.42;1.33;;;;;;;;;;5400332;26;19992;-81
2024/04/22 12:57:38;;;;;;;3.90;2.33;;;;;;;;;;5400017;26;19991;-81
2024/04/22 13:00:08;;;;;;;1.75;1.65;;;;;;;;;;5398967;26;20011;-81
2024/04/22 13:02:34;;;;;;;2.40;2.20;;;;;;;;;;5395068;26;20004;-79
2024/04/22 13:05:00;;;;;;;0.77;0.77;;;;;;;;;;5395330;26;20007;-81
2024/04/22 13:07:26;;;;;;;4.60;1.80;;;;;;;;;;5394279;26;20548;-82
2024/04/22 13:09:53;;;;;;;1.10;1.00;;;;;;;;;;5392382;26;20003;-81
2024/04/22 13:12:19;;;;;;;1.33;0.93;;;;;;;;;;5400588;26;20073;-81
2024/04/22 13:14:46;;;;;;;2.97;1.45;;;;;;;;;;5374046;26;20000;-82
2024/04/22 13:17:12;;;;;;;1.15;0.90;;;;;;;;;;5392968;26;19996;-81
2024/04/22 13:19:37;;;;;;;2.33;2.00;;;;;;;;;;5404558;26;20007;-81
2024/04/22 13:22:03;;;;;;;3.28;2.70;;;;;;;;;;5404361;26;20426;-80
2024/04/22 13:24:29;;;;;;;2.38;1.98;;;;;;;;;;5400235;26;20019;-82
2024/04/22 13:26:55;;;;;;;2.92;2.25;;;;;;;;;;5402281;26;20398;-81
2024/04/22 13:29:22;;;;;;;2.25;2.05;;;;;;;;;;5374081;26;20027;-82
2024/04/22 13:31:48;;;;;;;1.88;1.52;;;;;;;;;;5406620;26;20003;-80
2024/04/22 13:34:14;;;;;;;3.15;2.38;;;;;;;;;;5406609;26;20014;-82
2024/04/22 13:36:40;;;;;;;1.75;1.65;;;;;;;;;;5404769;26;19999;-82
2024/04/22 13:39:05;;;;;;;2.97;2.70;;;;;;;;;;5402176;26;20000;-81
2024/04/22 13:41:31;;;;;;;2.47;2.30;;;;;;;;;;5404723;26;19999;-82
2024/04/22 13:43:57;;;;;;;2.58;2.10;;;;;;;;;;5404243;26;19992;-83
2024/04/22 13:46:25;;;;;;;1.98;1.88;;;;;;;;;;5403764;26;20009;-82
2024/04/22 13:48:51;;;;;;;3.40;1.48;;;;;;;;;;5394548;26;20007;-82
2024/04/22 13:51:17;;;;;;;2.28;2.00;;;;;;;;;;5395319;26;21052;-81
2024/04/22 13:53:43;;;;;;;3.45;3.15;;;;;;;;;;5403349;26;20044;-82
2024/04/22 13:56:09;;;;;;;2.00;1.50;;;;;;;;;;5374373;26;20337;-82
2024/04/22 13:58:34;;;;;;;1.83;1.67;;;;;;;;;;5402486;26;20002;-81
2024/04/22 14:01:00;;;;;;;2.70;2.15;;;;;;;;;;5406879;26;20331;-83
2024/04/22 14:03:26;;;;;;;1.77;1.67;;;;;;;;;;5377948;26;20012;-82
2024/04/22 14:05:52;;;;;;;3.33;1.42;;;;;;;;;;5399271;26;19992;-82
2024/04/22 14:08:17;;;;;;;2.25;2.05;;;;;;;;;;5406311;26;20000;-82
2024/04/22 14:10:43;;;;;;;1.38;1.27;;;;;;;;;;5406436;26;19996;-81
2024/04/22 14:13:09;;;;;;;3.03;2.72;;;;;;;;;;5401196;26;20569;-82
2024/04/22 14:15:34;;;;;;;1.25;1.15;;;;;;;;;;5409212;26;19996;-81
2024/04/22 14:18:00;;;;;;;2.03;1.83;;;;;;;;;;5370103;26;20019;-82
2024/04/22 14:20:26;;;;;;;3.78;3.47;;;;;;;;;;5397609;26;20008;-82
2024/04/22 14:22:52;;;;;;;3.97;2.97;;;;;;;;;;5376767;26;19999;-80
2024/04/22 14:25:17;;;;;;;5.43;1.67;;;;;;;;;;5405069;26;20330;-80
2024/04/22 14:27:43;;;;;;;2.67;2.38;;;;;;;;;;5376914;26;19995;-82
2024/04/22 14:30:09;;;;;;;3.05;2.22;;;;;;;;;;5408317;26;19999;-83
2024/04/22 14:32:35;;;;;;;4.20;3.40;;;;;;;;;;5406413;26;20769;-82
2024/04/22 14:35:01;;;;;;;2.28;2.08;;;;;;;;;;5408849;26;20007;-81
2024/04/22 14:37:29;;;;;;;2.17;1.98;;;;;;;;;;5408929;26;20552;-80
2024/04/22 14:39:55;;;;;;;3.72;2.00;;;;;;;;;;5405764;26;20001;-82
2024/04/22 14:42:21;;;;;;;1.33;1.13;;;;;;;;;;5407964;26;20320;-82
2024/04/22 14:44:47;;;;;;;1.02;0.93;;;;;;;;;;5406358;26;19995;-82
2024/04/22 14:47:12;;;;;;;2.22;1.98;;;;;;;;;;5400536;26;19996;-81
2024/04/22 14:49:38;;;;;;;2.55;2.20;;;;;;;;;;5395832;26;20035;-82